Terminal Aerodrome Forecast
Issued by NWS

Home | Current Version | Previous Version | Graphics & Text | Print | Product List | Glossary On
Versions: 1 2 3 4 5 6 7 8 9 10 11 12 13 14 15 16 17
000
FTUS43 KBIS 292300
TAFJMS
TAF
KJMS 292330Z 3000/3024 10010KT P6SM BKN020 BKN070
     FM301000 12015G23KT P6SM BKN008 OVC020
     FM301600 12017G26KT 5SM -SHRA BKN012 OVC020=

USA.gov is the U.S. government's official web portal to all federal, state and local government web resources and services.